sensor_id;sensor_type;location;lat;lon;timestamp;pressure;altitude;pressure_sealevel;temperature;humidity
31771;BME280;18343;50.152;8.182;2023-05-08T14:29:11;97905.09;;;16.62;100.00
31771;BME280;18343;50.152;8.182;2023-05-08T14:31:56;97908.81;;;17.42;100.00
31771;BME280;18343;50.152;8.182;2023-05-08T14:34:41;97898.88;;;17.90;100.00
31771;BME280;18343;50.152;8.182;2023-05-08T14:37:27;97902.00;;;18.24;100.00
31771;BME280;18343;50.152;8.182;2023-05-08T14:40:11;97900.22;;;18.48;100.00
31771;BME280;18343;50.152;8.182;2023-05-08T14:42:56;97896.09;;;18.57;100.00
31771;BME280;18343;50.152;8.182;2023-05-08T14:45:42;97891.16;;;18.66;100.00
31771;BME280;18343;50.152;8.182;2023-05-08T14:48:27;97891.16;;;18.66;100.00
31771;BME280;18343;50.152;8.182;2023-05-08T14:51:13;97896.16;;;18.69;100.00
31771;BME280;18343;50.152;8.182;2023-05-08T14:54:02;97886.91;;;18.70;100.00
31771;BME280;18343;50.152;8.182;2023-05-08T14:56:47;97892.47;;;18.63;100.00
31771;BME280;18343;50.152;8.182;2023-05-08T14:59:32;97887.38;;;18.67;100.00
31771;BME280;18343;50.152;8.182;2023-05-08T15:02:18;97883.13;;;18.71;100.00
31771;BME280;18343;50.152;8.182;2023-05-08T15:05:03;97880.78;;;18.74;100.00
31771;BME280;18343;50.152;8.182;2023-05-08T15:07:50;97876.28;;;18.80;100.00
31771;BME280;18343;50.152;8.182;2023-05-08T15:10:36;97869.06;;;18.85;100.00
31771;BME280;18343;50.152;8.182;2023-05-08T15:13:20;97872.25;;;18.94;100.00
31771;BME280;18343;50.152;8.182;2023-05-08T15:16:06;97867.75;;;19.00;100.00
31771;BME280;18343;50.152;8.182;2023-05-08T15:18:52;97871.09;;;19.02;100.00
31771;BME280;18343;50.152;8.182;2023-05-08T15:21:37;97878.78;;;18.93;100.00
31771;BME280;18343;50.152;8.182;2023-05-08T15:24:22;97874.03;;;18.88;100.00
31771;BME280;18343;50.152;8.182;2023-05-08T15:27:07;97878.06;;;18.86;100.00
31771;BME280;18343;50.152;8.182;2023-05-08T15:29:52;97881.13;;;18.78;100.00
31771;BME280;18343;50.152;8.182;2023-05-08T15:32:38;97881.84;;;18.73;100.00
31771;BME280;18343;50.152;8.182;2023-05-08T15:35:25;97889.28;;;18.66;100.00
31771;BME280;18343;50.152;8.182;2023-05-08T15:38:09;97885.72;;;18.66;100.00
31771;BME280;18343;50.152;8.182;2023-05-08T15:40:55;97889.59;;;18.58;100.00
31771;BME280;18343;50.152;8.182;2023-05-08T15:43:42;97890.19;;;18.60;100.00
31771;BME280;18343;50.152;8.182;2023-05-08T15:46:28;97888.91;;;18.63;100.00
31771;BME280;18343;50.152;8.182;2023-05-08T15:49:12;97885.34;;;18.62;100.00
31771;BME280;18343;50.152;8.182;2023-05-08T15:51:58;97898.97;;;18.62;100.00
31771;BME280;18343;50.152;8.182;2023-05-08T15:54:43;97901.56;;;18.57;100.00
31771;BME280;18343;50.152;8.182;2023-05-08T15:57:27;97898.91;;;18.50;100.00
31771;BME280;18343;50.152;8.182;2023-05-08T16:00:14;97897.13;;;18.44;100.00
31771;BME280;18343;50.152;8.182;2023-05-08T16:02:59;97907.03;;;18.39;100.00
31771;BME280;18343;50.152;8.182;2023-05-08T16:05:43;97908.22;;;18.31;100.00
31771;BME280;18343;50.152;8.182;2023-05-08T16:08:29;97908.66;;;18.28;100.00
31771;BME280;18343;50.152;8.182;2023-05-08T16:11:14;97909.72;;;18.27;100.00
31771;BME280;18343;50.152;8.182;2023-05-08T16:13:59;97908.06;;;18.26;100.00
31771;BME280;18343;50.152;8.182;2023-05-08T16:16:43;97901.31;;;18.29;100.00
31771;BME280;18343;50.152;8.182;2023-05-08T16:19:28;97903.06;;;18.23;100.00
31771;BME280;18343;50.152;8.182;2023-05-08T16:22:13;97898.91;;;18.20;100.00
31771;BME280;18343;50.152;8.182;2023-05-08T16:25:02;97885.63;;;18.12;100.00
31771;BME280;18343;50.152;8.182;2023-05-08T16:27:47;97893.78;;;18.12;100.00
31771;BME280;18343;50.152;8.182;2023-05-08T16:30:32;97888.78;;;18.09;100.00
31771;BME280;18343;50.152;8.182;2023-05-08T16:33:16;97883.81;;;18.06;100.00
31771;BME280;18343;50.152;8.182;2023-05-08T16:36:01;97888.34;;;18.12;100.00
31771;BME280;18343;50.152;8.182;2023-05-08T16:38:46;97878.28;;;18.13;100.00
31771;BME280;18343;50.152;8.182;2023-05-08T16:41:32;97879.09;;;18.13;100.00
31771;BME280;18343;50.152;8.182;2023-05-08T16:44:17;97868.59;;;18.17;100.00
31771;BME280;18343;50.152;8.182;2023-05-08T16:47:01;97868.97;;;18.20;100.00
31771;BME280;18343;50.152;8.182;2023-05-08T16:49:46;97869.81;;;18.21;100.00
31771;BME280;18343;50.152;8.182;2023-05-08T16:52:31;97867.09;;;18.21;100.00
31771;BME280;18343;50.152;8.182;2023-05-08T16:55:16;97875.63;;;18.24;100.00
31771;BME280;18343;50.152;8.182;2023-05-08T16:58:02;97869.34;;;18.24;100.00
31771;BME280;18343;50.152;8.182;2023-05-08T17:00:46;97862.59;;;18.26;100.00
31771;BME280;18343;50.152;8.182;2023-05-08T17:03:31;97865.34;;;18.26;100.00
31771;BME280;18343;50.152;8.182;2023-05-08T17:06:18;97861.78;;;18.26;100.00
31771;BME280;18343;50.152;8.182;2023-05-08T17:09:03;97860.25;;;18.30;100.00
31771;BME280;18343;50.152;8.182;2023-05-08T17:11:47;97859.75;;;18.33;100.00
31771;BME280;18343;50.152;8.182;2023-05-08T17:14:33;97860.97;;;18.37;100.00
31771;BME280;18343;50.152;8.182;2023-05-08T17:17:19;97858.84;;;18.39;100.00
31771;BME280;18343;50.152;8.182;2023-05-08T17:20:05;97860.06;;;18.43;100.00
31771;BME280;18343;50.152;8.182;2023-05-08T17:22:52;97867.38;;;18.43;100.00
31771;BME280;18343;50.152;8.182;2023-05-08T17:25:39;97862.03;;;18.36;100.00
31771;BME280;18343;50.152;8.182;2023-05-08T17:28:24;97868.31;;;18.37;100.00
31771;BME280;18343;50.152;8.182;2023-05-08T17:31:11;97871.63;;;18.39;100.00
31771;BME280;18343;50.152;8.182;2023-05-08T17:33:56;97864.28;;;18.39;100.00
31771;BME280;18343;50.152;8.182;2023-05-08T17:36:40;97865.47;;;18.32;100.00
31771;BME280;18343;50.152;8.182;2023-05-08T17:39:25;97874.19;;;18.22;100.00
31771;BME280;18343;50.152;8.182;2023-05-08T17:42:10;97873.66;;;18.13;100.00
31771;BME280;18343;50.152;8.182;2023-05-08T17:44:55;97878.13;;;18.08;100.00
31771;BME280;18343;50.152;8.182;2023-05-08T17:47:40;97878.03;;;18.03;100.00
31771;BME280;18343;50.152;8.182;2023-05-08T17:50:25;97882.19;;;18.05;100.00
31771;BME280;18343;50.152;8.182;2023-05-08T17:53:10;97878.63;;;18.05;100.00
31771;BME280;18343;50.152;8.182;2023-05-08T17:55:55;97881.34;;;18.05;100.00
31771;BME280;18343;50.152;8.182;2023-05-08T17:58:42;97873.75;;;18.07;100.00
31771;BME280;18343;50.152;8.182;2023-05-08T18:01:29;97872.69;;;18.08;100.00
31771;BME280;18343;50.152;8.182;2023-05-08T18:04:15;97864.19;;;18.04;100.00
31771;BME280;18343;50.152;8.182;2023-05-08T18:06:59;97872.44;;;17.98;100.00
31771;BME280;18343;50.152;8.182;2023-05-08T18:09:44;97878.94;;;17.97;100.00
31771;BME280;18343;50.152;8.182;2023-05-08T18:12:31;97876.66;;;17.93;100.00
31771;BME280;18343;50.152;8.182;2023-05-08T18:15:16;97881.56;;;17.85;100.00
31771;BME280;18343;50.152;8.182;2023-05-08T18:18:04;97877.41;;;17.82;100.00
31771;BME280;18343;50.152;8.182;2023-05-08T18:20:50;97885.81;;;17.81;100.00
31771;BME280;18343;50.152;8.182;2023-05-08T18:23:35;97881.19;;;17.81;100.00
31771;BME280;18343;50.152;8.182;2023-05-08T18:26:20;97884.53;;;17.83;100.00
31771;BME280;18343;50.152;8.182;2023-05-08T18:29:05;97881.91;;;17.77;100.00
31771;BME280;18343;50.152;8.182;2023-05-08T18:31:49;97885.06;;;17.74;100.00
31771;BME280;18343;50.152;8.182;2023-05-08T18:34:34;97892.41;;;17.73;100.00
31771;BME280;18343;50.152;8.182;2023-05-08T18:37:20;97888.63;;;17.74;100.00
31771;BME280;18343;50.152;8.182;2023-05-08T18:40:06;97888.16;;;17.77;100.00
31771;BME280;18343;50.152;8.182;2023-05-08T18:42:51;97893.13;;;17.80;100.00
31771;BME280;18343;50.152;8.182;2023-05-08T18:45:37;97887.56;;;17.75;100.00
31771;BME280;18343;50.152;8.182;2023-05-08T18:48:22;97886.34;;;17.71;100.00
31771;BME280;18343;50.152;8.182;2023-05-08T18:51:09;97886.44;;;17.65;100.00
31771;BME280;18343;50.152;8.182;2023-05-08T18:53:55;97882.69;;;17.59;100.00
31771;BME280;18343;50.152;8.182;2023-05-08T18:56:42;97886.44;;;17.65;100.00
31771;BME280;18343;50.152;8.182;2023-05-08T18:59:26;97891.88;;;17.65;100.00
31771;BME280;18343;50.152;8.182;2023-05-08T19:02:11;97885.56;;;17.64;100.00
31771;BME280;18343;50.152;8.182;2023-05-08T19:04:56;97889.56;;;17.62;100.00
31771;BME280;18343;50.152;8.182;2023-05-08T19:07:42;97888.13;;;17.59;100.00
31771;BME280;18343;50.152;8.182;2023-05-08T19:10:29;97883.75;;;17.58;100.00
31771;BME280;18343;50.152;8.182;2023-05-08T19:13:13;97879.97;;;17.59;100.00
31771;BME280;18343;50.152;8.182;2023-05-08T19:15:59;97883.50;;;17.59;100.00
31771;BME280;18343;50.152;8.182;2023-05-08T19:18:43;97868.69;;;17.55;100.00
31771;BME280;18343;50.152;8.182;2023-05-08T19:21:28;97872.34;;;17.49;100.00
31771;BME280;18343;50.152;8.182;2023-05-08T19:24:12;97879.13;;;17.40;100.00
31771;BME280;18343;50.152;8.182;2023-05-08T19:27:03;97873.75;;;17.34;100.00
31771;BME280;18343;50.152;8.182;2023-05-08T19:29:48;97873.81;;;17.27;100.00
31771;BME280;18343;50.152;8.182;2023-05-08T19:32:33;97873.44;;;17.23;100.00
31771;BME280;18343;50.152;8.182;2023-05-08T19:35:18;97871.63;;;17.17;100.00
31771;BME280;18343;50.152;8.182;2023-05-08T19:38:02;97877.34;;;17.09;100.00
31771;BME280;18343;50.152;8.182;2023-05-08T19:40:49;97884.28;;;17.05;100.00
31771;BME280;18343;50.152;8.182;2023-05-08T19:43:36;97876.56;;;17.02;100.00
31771;BME280;18343;50.152;8.182;2023-05-08T19:46:20;97875.53;;;17.03;100.00
31771;BME280;18343;50.152;8.182;2023-05-08T19:49:05;97882.84;;;17.03;100.00
31771;BME280;18343;50.152;8.182;2023-05-08T19:51:51;97880.34;;;17.01;100.00
31771;BME280;18343;50.152;8.182;2023-05-08T19:54:36;97873.63;;;17.04;100.00
31771;BME280;18343;50.152;8.182;2023-05-08T19:57:21;97878.22;;;17.03;100.00
31771;BME280;18343;50.152;8.182;2023-05-08T20:00:09;97873.63;;;17.04;100.00
31771;BME280;18343;50.152;8.182;2023-05-08T20:02:55;97869.88;;;17.05;100.00
31771;BME280;18343;50.152;8.182;2023-05-08T20:05:40;97873.63;;;17.04;100.00
31771;BME280;18343;50.152;8.182;2023-05-08T20:08:25;97870.53;;;17.00;100.00
31771;BME280;18343;50.152;8.182;2023-05-08T20:11:10;97871.44;;;16.94;100.00
31771;BME280;18343;50.152;8.182;2023-05-08T20:13:57;97873.94;;;16.96;100.00
31771;BME280;18343;50.152;8.182;2023-05-08T20:16:43;97866.88;;;16.88;100.00
31771;BME280;18343;50.152;8.182;2023-05-08T20:19:31;97864.00;;;16.83;100.00
31771;BME280;18343;50.152;8.182;2023-05-08T20:22:15;97862.16;;;16.77;100.00
31771;BME280;18343;50.152;8.182;2023-05-08T20:25:00;97868.66;;;16.76;100.00
31771;BME280;18343;50.152;8.182;2023-05-08T20:27:44;97868.66;;;16.76;100.00
31771;BME280;18343;50.152;8.182;2023-05-08T20:30:31;97870.09;;;16.78;100.00
31771;BME280;18343;50.152;8.182;2023-05-08T20:33:16;97865.50;;;16.79;100.00
31771;BME280;18343;50.152;8.182;2023-05-08T20:36:01;97867.38;;;16.78;100.00
31771;BME280;18343;50.152;8.182;2023-05-08T20:38:46;97860.91;;;16.79;100.00
31771;BME280;18343;50.152;8.182;2023-05-08T20:41:31;97855.47;;;16.79;100.00
31771;BME280;18343;50.152;8.182;2023-05-08T20:44:16;97855.06;;;16.76;100.00
31771;BME280;18343;50.152;8.182;2023-05-08T20:47:00;97862.59;;;16.74;100.00
31771;BME280;18343;50.152;8.182;2023-05-08T20:49:46;97860.72;;;16.74;100.00
31771;BME280;18343;50.152;8.182;2023-05-08T20:52:31;97851.31;;;16.77;100.00
31771;BME280;18343;50.152;8.182;2023-05-08T20:55:17;97852.56;;;16.74;100.00
31771;BME280;18343;50.152;8.182;2023-05-08T20:58:01;97852.13;;;16.77;100.00
31771;BME280;18343;50.152;8.182;2023-05-08T21:00:46;97846.31;;;16.74;100.00
31771;BME280;18343;50.152;8.182;2023-05-08T21:03:31;97843.91;;;16.66;100.00
31771;BME280;18343;50.152;8.182;2023-05-08T21:06:16;97847.72;;;16.51;100.00
31771;BME280;18343;50.152;8.182;2023-05-08T21:09:01;97848.59;;;16.45;100.00
31771;BME280;18343;50.152;8.182;2023-05-08T21:11:46;97850.88;;;16.48;100.00
31771;BME280;18343;50.152;8.182;2023-05-08T21:14:30;97853.38;;;16.50;100.00
31771;BME280;18343;50.152;8.182;2023-05-08T21:17:15;97849.78;;;16.56;100.00
31771;BME280;18343;50.152;8.182;2023-05-08T21:19:59;97853.94;;;16.58;100.00
31771;BME280;18343;50.152;8.182;2023-05-08T21:22:46;97840.13;;;16.60;100.00
31771;BME280;18343;50.152;8.182;2023-05-08T21:25:31;97838.69;;;16.57;100.00
31771;BME280;18343;50.152;8.182;2023-05-08T21:28:16;97853.72;;;16.60;100.00
31771;BME280;18343;50.152;8.182;2023-05-08T21:31:00;97848.94;;;16.55;100.00
31771;BME280;18343;50.152;8.182;2023-05-08T21:33:45;97847.97;;;16.43;100.00
31771;BME280;18343;50.152;8.182;2023-05-08T21:36:32;97852.13;;;16.46;100.00
31771;BME280;18343;50.152;8.182;2023-05-08T21:39:18;97857.75;;;16.51;100.00
31771;BME280;18343;50.152;8.182;2023-05-08T21:42:03;97851.03;;;16.53;100.00
31771;BME280;18343;50.152;8.182;2023-05-08T21:44:48;97857.09;;;16.55;100.00
31771;BME280;18343;50.152;8.182;2023-05-08T21:47:33;97841.41;;;16.57;100.00
31771;BME280;18343;50.152;8.182;2023-05-08T21:50:18;97839.53;;;16.58;100.00
31771;BME280;18343;50.152;8.182;2023-05-08T21:53:02;97830.56;;;16.57;100.00
31771;BME280;18343;50.152;8.182;2023-05-08T21:55:48;97834.75;;;16.53;100.00
31771;BME280;18343;50.152;8.182;2023-05-08T21:58:33;97833.75;;;16.48;100.00
31771;BME280;18343;50.152;8.182;2023-05-08T22:01:18;97822.72;;;16.43;100.00
31771;BME280;18343;50.152;8.182;2023-05-08T22:04:03;97813.38;;;16.39;100.00
31771;BME280;18343;50.152;8.182;2023-05-08T22:06:47;97821.53;;;16.39;100.00
31771;BME280;18343;50.152;8.182;2023-05-08T22:09:32;97819.47;;;16.34;100.00
31771;BME280;18343;50.152;8.182;2023-05-08T22:12:19;97816.13;;;16.32;100.00
31771;BME280;18343;50.152;8.182;2023-05-08T22:15:05;97812.38;;;16.33;100.00
31771;BME280;18343;50.152;8.182;2023-05-08T22:17:50;97810.69;;;16.32;100.00
31771;BME280;18343;50.152;8.182;2023-05-08T22:20:34;97808.00;;;16.32;100.00
31771;BME280;18343;50.152;8.182;2023-05-08T22:23:19;97801.50;;;16.33;100.00
31771;BME280;18343;50.152;8.182;2023-05-08T22:26:04;97801.50;;;16.33;100.00
31771;BME280;18343;50.152;8.182;2023-05-08T22:28:50;97800.47;;;16.34;100.00
31771;BME280;18343;50.152;8.182;2023-05-08T22:31:35;97797.53;;;16.36;100.00
31771;BME280;18343;50.152;8.182;2023-05-08T22:34:19;97797.09;;;16.39;100.00
31771;BME280;18343;50.152;8.182;2023-05-08T22:37:04;97793.31;;;16.40;100.00
31771;BME280;18343;50.152;8.182;2023-05-08T22:39:49;97791.19;;;16.42;100.00
31771;BME280;18343;50.152;8.182;2023-05-08T22:42:34;97794.91;;;16.47;100.00
31771;BME280;18343;50.152;8.182;2023-05-08T22:45:20;97790.25;;;16.54;100.00
31771;BME280;18343;50.152;8.182;2023-05-08T22:48:06;97777.75;;;16.53;100.00
31771;BME280;18343;50.152;8.182;2023-05-08T22:50:51;97784.00;;;16.54;100.00
31771;BME280;18343;50.152;8.182;2023-05-08T22:53:35;97778.78;;;16.52;100.00
31771;BME280;18343;50.152;8.182;2023-05-08T22:56:20;97771.47;;;16.53;100.00
31771;BME280;18343;50.152;8.182;2023-05-08T22:59:05;97779.84;;;16.51;100.00
31771;BME280;18343;50.152;8.182;2023-05-08T23:01:52;97776.06;;;16.52;100.00
31771;BME280;18343;50.152;8.182;2023-05-08T23:04:40;97772.75;;;16.50;100.00
31771;BME280;18343;50.152;8.182;2023-05-08T23:07:24;97777.41;;;16.43;100.00
31771;BME280;18343;50.152;8.182;2023-05-08T23:10:10;97771.34;;;16.41;100.00
31771;BME280;18343;50.152;8.182;2023-05-08T23:12:56;97764.03;;;16.42;100.00
31771;BME280;18343;50.152;8.182;2023-05-08T23:15:40;97762.78;;;16.44;100.00
31771;BME280;18343;50.152;8.182;2023-05-08T23:18:26;97764.00;;;16.48;100.00
31771;BME280;18343;50.152;8.182;2023-05-08T23:21:11;97756.47;;;16.50;100.00
31771;BME280;18343;50.152;8.182;2023-05-08T23:23:56;97759.78;;;16.52;100.00
31771;BME280;18343;50.152;8.182;2023-05-08T23:26:41;97755.19;;;16.53;100.00
31771;BME280;18343;50.152;8.182;2023-05-08T23:29:26;97757.91;;;16.53;100.00
31771;BME280;18343;50.152;8.182;2023-05-08T23:32:12;97747.88;;;16.53;100.00
31771;BME280;18343;50.152;8.182;2023-05-08T23:34:58;97751.41;;;16.54;100.00
31771;BME280;18343;50.152;8.182;2023-05-08T23:37:43;97753.75;;;16.50;100.00
31771;BME280;18343;50.152;8.182;2023-05-08T23:40:28;97745.88;;;16.42;100.00
31771;BME280;18343;50.152;8.182;2023-05-08T23:43:12;97748.66;;;16.36;100.00
31771;BME280;18343;50.152;8.182;2023-05-08T23:45:58;97741.19;;;16.31;100.00
31771;BME280;18343;50.152;8.182;2023-05-08T23:48:42;97736.16;;;16.35;100.00
31771;BME280;18343;50.152;8.182;2023-05-08T23:51:28;97739.25;;;16.38;100.00
31771;BME280;18343;50.152;8.182;2023-05-08T23:54:13;97739.88;;;16.40;100.00
31771;BME280;18343;50.152;8.182;2023-05-08T23:56:59;97729.59;;;16.42;100.00
31771;BME280;18343;50.152;8.182;2023-05-08T23:59:43;97725.00;;;16.43;100.00
